Time;durP1;ratioP1;P1;durP2;ratioP2;P2;SDS_P1;SDS_P2;PMS_P1;PMS_P2;Temp;Humidity;BMP_temperature;BMP_pressure;BME280_temperature;BME280_humidity;BME280_pressure;Samples;Min_cycle;Max_cycle;Signal;HPM_P1;HPM_P2
2022/11/10 00:01:27;;;;;;;;;;;;;;;4.16;100.00;97920.90;107718;1268;72566;-75
2022/11/10 00:04:15;;;;;;;;;;;;;;;4.13;100.00;97925.14;107703;1266;68893;-74
2022/11/10 00:07:03;;;;;;;;;;;;;;;4.08;100.00;97923.44;107728;1263;69563;-75
2022/11/10 00:09:51;;;;;;;;;;;;;;;4.09;100.00;97922.90;107705;1269;60590;-75
2022/11/10 00:12:39;;;;;;;;;;;;;;;4.07;100.00;97921.39;107762;1265;60469;-75
2022/11/10 00:18:34;;;;;;;;;;;;;;;4.08;100.00;97919.65;107656;1266;69286;-75
2022/11/10 00:21:23;;;;;;;;;;;;;;;4.06;100.00;97917.14;107637;1268;69430;-75
2022/11/10 00:24:11;;;;;;;;;;;;;;;4.03;100.00;97919.34;107727;1267;60549;-75
2022/11/10 00:27:00;;;;;;;;;;;;;;;4.05;100.00;97923.73;107630;1270;60484;-75
2022/11/10 00:29:47;;;;;;;;;;;;;;;4.05;100.00;97925.09;107630;1266;72917;-75
2022/11/10 00:32:36;;;;;;;;;;;;;;;4.04;100.00;97928.25;107612;1267;69734;-75
2022/11/10 00:35:24;;;;;;;;;;;;;;;4.02;100.00;97929.55;107634;1270;68529;-74
2022/11/10 00:38:12;;;;;;;;;;;;;;;4.02;100.00;97927.98;107555;1267;60582;-75
2022/11/10 00:41:01;;;;;;;;;;;;;;;4.01;100.00;97933.21;107661;1267;60577;-73
2022/11/10 00:43:49;;;;;;;;;;;;;;;3.98;100.00;97928.30;107578;1266;72397;-75
2022/11/10 00:46:39;;;;;;;;;;;;;;;4.00;100.00;97927.22;107612;1267;68496;-75
2022/11/10 00:49:26;;;;;;;;;;;;;;;3.99;100.00;97921.54;107607;1266;69690;-75
2022/11/10 00:52:15;;;;;;;;;;;;;;;3.99;100.00;97919.81;107653;1270;60529;-75
2022/11/10 00:55:04;;;;;;;;;;;;;;;3.95;100.00;97922.05;107646;1265;60543;-75
2022/11/10 00:57:53;;;;;;;;;;;;;;;3.94;100.00;97920.90;107671;1266;72093;-75
2022/11/10 01:00:42;;;;;;;;;;;;;;;3.94;100.00;97918.80;107614;1266;69555;-74
2022/11/10 01:03:31;;;;;;;;;;;;;;;3.94;100.00;97915.02;107617;1269;69361;-75
2022/11/10 01:06:20;;;;;;;;;;;;;;;3.90;100.00;97910.36;107633;1266;60512;-75
2022/11/10 01:09:09;;;;;;;;;;;;;;;3.84;100.00;97910.73;107661;1265;60937;-75
2022/11/10 01:11:58;;;;;;;;;;;;;;;3.87;100.00;97913.23;107607;1265;72231;-74
2022/11/10 01:14:47;;;;;;;;;;;;;;;3.86;100.00;97910.67;107638;1269;69526;-75
2022/11/10 01:17:36;;;;;;;;;;;;;;;3.83;100.00;97911.27;107646;1267;67500;-75
2022/11/10 01:20:24;;;;;;;;;;;;;;;3.79;100.00;97912.83;107664;1268;60504;-76
2022/11/10 01:23:12;;;;;;;;;;;;;;;3.79;100.00;97916.96;107720;1270;60481;-77
2022/11/10 01:26:02;;;;;;;;;;;;;;;3.80;100.00;97919.35;107658;1267;72130;-75
2022/11/10 01:28:50;;;;;;;;;;;;;;;3.80;100.00;97919.69;107640;1270;69724;-76
2022/11/10 01:31:39;;;;;;;;;;;;;;;3.80;100.00;97913.64;107623;1267;69518;-75
2022/11/10 01:34:27;;;;;;;;;;;;;;;3.79;100.00;97910.23;107641;1267;60586;-75
2022/11/10 01:37:16;;;;;;;;;;;;;;;3.80;100.00;97904.16;107670;1269;60541;-75
2022/11/10 01:40:05;;;;;;;;;;;;;;;3.82;100.00;97907.34;107647;1267;71749;-75
2022/11/10 01:42:55;;;;;;;;;;;;;;;3.86;100.00;97904.11;107654;1267;69671;-75
2022/11/10 01:45:43;;;;;;;;;;;;;;;3.88;100.00;97901.11;107633;1269;69499;-75
2022/11/10 01:48:42;;;;;;;;;;;;;;;3.86;100.00;97898.76;107621;1266;60514;-75
2022/11/10 01:51:30;;;;;;;;;;;;;;;3.86;100.00;97900.14;107634;1267;60532;-75
2022/11/10 01:54:24;;;;;;;;;;;;;;;3.86;100.00;97895.67;107632;1270;72296;-75
2022/11/10 01:57:14;;;;;;;;;;;;;;;3.84;100.00;97904.02;107672;1270;69038;-75
2022/11/10 02:00:04;;;;;;;;;;;;;;;3.81;100.00;97906.36;107637;1269;68573;-74
2022/11/10 02:02:56;;;;;;;;;;;;;;;3.80;100.00;97910.22;107623;1267;60497;-75
2022/11/10 02:05:45;;;;;;;;;;;;;;;3.81;100.00;97913.79;107587;1268;60541;-76
2022/11/10 02:08:34;;;;;;;;;;;;;;;3.85;100.00;97913.83;107621;1265;72068;-75
2022/11/10 02:11:23;;;;;;;;;;;;;;;3.87;100.00;97912.85;107669;1265;69652;-75
2022/11/10 02:14:14;;;;;;;;;;;;;;;3.88;100.00;97917.33;107625;1269;68459;-75
2022/11/10 02:17:02;;;;;;;;;;;;;;;3.88;100.00;97918.88;107620;1270;60541;-75
2022/11/10 02:19:50;;;;;;;;;;;;;;;3.88;100.00;97919.73;107672;1270;60528;-75
2022/11/10 02:22:38;;;;;;;;;;;;;;;3.86;100.00;97917.21;107647;1267;72569;-75
2022/11/10 02:25:29;;;;;;;;;;;;;;;3.85;100.00;97917.63;107641;1266;69901;-75
2022/11/10 02:28:17;;;;;;;;;;;;;;;3.84;100.00;97919.52;107620;1269;69193;-75
2022/11/10 02:31:08;;;;;;;;;;;;;;;3.83;100.00;97920.94;107642;1267;60527;-75
2022/11/10 02:33:56;;;;;;;;;;;;;;;3.82;100.00;97921.50;107651;1266;60499;-76
2022/11/10 02:36:44;;;;;;;;;;;;;;;3.81;100.00;97925.16;107627;1269;72876;-75
2022/11/10 02:39:33;;;;;;;;;;;;;;;3.79;100.00;97929.21;107660;1267;69347;-75
2022/11/10 02:42:21;;;;;;;;;;;;;;;3.76;100.00;97930.34;107576;1267;69339;-76
2022/11/10 02:45:11;;;;;;;;;;;;;;;3.77;100.00;97920.14;107601;1266;60557;-76
2022/11/10 02:47:59;;;;;;;;;;;;;;;3.78;100.00;97919.93;107637;1269;60512;-75
2022/11/10 02:50:47;;;;;;;;;;;;;;;3.78;100.00;97918.38;107612;1268;72610;-75
2022/11/10 02:53:36;;;;;;;;;;;;;;;3.78;100.00;97921.48;107643;1267;69883;-75
2022/11/10 02:56:24;;;;;;;;;;;;;;;3.78;100.00;97919.24;107620;1270;69620;-75
2022/11/10 02:59:13;;;;;;;;;;;;;;;3.76;100.00;97918.98;107634;1270;60506;-75
2022/11/10 03:02:01;;;;;;;;;;;;;;;3.75;100.00;97922.31;107640;1270;60538;-75
2022/11/10 03:04:49;;;;;;;;;;;;;;;3.74;100.00;97926.80;107623;1269;72658;-75
2022/11/10 03:07:37;;;;;;;;;;;;;;;3.71;100.00;97932.77;107609;1266;69747;-75
2022/11/10 03:10:27;;;;;;;;;;;;;;;3.67;100.00;97932.42;107653;1270;69865;-75
2022/11/10 03:13:16;;;;;;;;;;;;;;;3.64;100.00;97930.44;107583;1270;60495;-74
2022/11/10 03:16:05;;;;;;;;;;;;;;;3.66;100.00;97931.44;107640;1270;60511;-75
2022/11/10 03:18:54;;;;;;;;;;;;;;;3.67;100.00;97935.86;107636;1267;72485;-75
2022/11/10 03:21:43;;;;;;;;;;;;;;;3.66;100.00;97933.66;107625;1269;69680;-75
2022/11/10 03:24:31;;;;;;;;;;;;;;;3.62;100.00;97932.42;107655;1261;69109;-75
2022/11/10 03:27:19;;;;;;;;;;;;;;;3.58;100.00;97934.45;107608;1270;60496;-75
2022/11/10 03:30:09;;;;;;;;;;;;;;;3.59;100.00;97934.60;107629;1267;60515;-75
2022/11/10 03:32:57;;;;;;;;;;;;;;;3.59;100.00;97933.75;107648;1267;72793;-75
2022/11/10 03:35:47;;;;;;;;;;;;;;;3.56;100.00;97929.88;107608;1267;69256;-75
2022/11/10 03:38:35;;;;;;;;;;;;;;;3.54;100.00;97932.17;107642;1269;69760;-76
2022/11/10 03:41:24;;;;;;;;;;;;;;;3.57;100.00;97930.71;107609;1269;60500;-75
2022/11/10 03:44:12;;;;;;;;;;;;;;;3.59;100.00;97931.31;107623;1269;60500;-75
2022/11/10 03:47:02;;;;;;;;;;;;;;;3.62;100.00;97935.56;107622;1270;71998;-75
2022/11/10 03:49:50;;;;;;;;;;;;;;;3.63;100.00;97934.12;107633;1269;69324;-75
2022/11/10 03:52:41;;;;;;;;;;;;;;;3.62;100.00;97935.89;107580;1271;69643;-75
2022/11/10 03:55:30;;;;;;;;;;;;;;;3.61;100.00;97940.75;107635;1267;60914;-75
2022/11/10 03:58:18;;;;;;;;;;;;;;;3.58;100.00;97940.13;107600;1267;60465;-75
2022/11/10 04:01:07;;;;;;;;;;;;;;;3.59;100.00;97945.80;107647;1267;72601;-75
2022/11/10 04:03:55;;;;;;;;;;;;;;;3.61;100.00;97950.92;107685;1269;69824;-76
2022/11/10 04:09:50;;;;;;;;;;;;;;;3.61;100.00;97952.47;107655;1270;60506;-76
2022/11/10 04:15:45;;;;;;;;;;;;;;;3.63;100.00;97956.19;107648;1267;72184;-76
2022/11/10 04:18:32;;;;;;;;;;;;;;;3.67;100.00;97955.38;107626;1270;68652;-74
2022/11/10 04:21:19;;;;;;;;;;;;;;;3.70;100.00;97954.05;107587;1267;68583;-74
2022/11/10 04:24:08;;;;;;;;;;;;;;;3.69;100.00;97958.36;107634;1260;60490;-74
2022/11/10 04:26:56;;;;;;;;;;;;;;;3.68;100.00;97961.33;107689;1269;60506;-74
2022/11/10 04:29:44;;;;;;;;;;;;;;;3.67;100.00;97960.17;107638;1261;72882;-74
2022/11/10 04:32:31;;;;;;;;;;;;;;;3.67;100.00;97961.02;107654;1266;69569;-74
2022/11/10 04:35:19;;;;;;;;;;;;;;;3.66;100.00;97962.80;107590;1270;70398;-73
2022/11/10 04:38:07;;;;;;;;;;;;;;;3.64;100.00;97962.52;107622;1267;60560;-74
2022/11/10 04:40:55;;;;;;;;;;;;;;;3.61;100.00;97959.71;107614;1269;60514;-74
2022/11/10 04:43:42;;;;;;;;;;;;;;;3.56;100.00;97962.79;107608;1269;72781;-74
2022/11/10 04:46:33;;;;;;;;;;;;;;;3.54;100.00;97968.03;107636;1269;69930;-75
2022/11/10 04:49:21;;;;;;;;;;;;;;;3.52;100.00;97966.73;107625;1269;69854;-75
2022/11/10 04:52:08;;;;;;;;;;;;;;;3.48;100.00;97966.69;107601;1267;60579;-74
2022/11/10 04:54:57;;;;;;;;;;;;;;;3.49;100.00;97964.06;107614;1267;60474;-74
2022/11/10 04:57:44;;;;;;;;;;;;;;;3.51;100.00;97969.52;107631;1270;72565;-76
2022/11/10 05:00:32;;;;;;;;;;;;;;;3.52;100.00;97963.80;107641;1270;68602;-75
2022/11/10 05:03:21;;;;;;;;;;;;;;;3.55;100.00;97971.95;107643;1267;69684;-76
2022/11/10 05:06:09;;;;;;;;;;;;;;;3.56;100.00;97970.05;107444;1270;60548;-76
2022/11/10 05:08:57;;;;;;;;;;;;;;;3.54;100.00;97972.85;107656;1269;60515;-73
2022/11/10 05:11:44;;;;;;;;;;;;;;;3.53;100.00;97975.13;107653;1265;72500;-74
2022/11/10 05:14:31;;;;;;;;;;;;;;;3.55;100.00;97979.39;107624;1271;69239;-75
2022/11/10 05:17:19;;;;;;;;;;;;;;;3.55;100.00;97977.13;107630;1269;68553;-74
2022/11/10 05:20:07;;;;;;;;;;;;;;;3.55;100.00;97981.09;107633;1270;60518;-75
2022/11/10 05:26:00;;;;;;;;;;;;;;;3.55;100.00;97988.87;107610;1267;71708;-75
2022/11/10 05:28:48;;;;;;;;;;;;;;;3.51;100.00;97992.28;107547;1267;68655;-75
2022/11/10 05:31:36;;;;;;;;;;;;;;;3.49;100.00;97996.30;107632;1271;68297;-74
2022/11/10 05:34:23;;;;;;;;;;;;;;;3.48;100.00;98006.86;107603;1270;60919;-74
2022/11/10 05:37:10;;;;;;;;;;;;;;;3.46;100.00;98011.73;107606;1269;60913;-75
2022/11/10 05:39:57;;;;;;;;;;;;;;;3.44;100.00;98016.64;107612;1269;72055;-74
2022/11/10 05:42:46;;;;;;;;;;;;;;;3.40;100.00;98017.15;107665;1270;67732;-74
2022/11/10 05:45:33;;;;;;;;;;;;;;;3.40;100.00;98019.90;107614;1269;68774;-75
2022/11/10 05:48:21;;;;;;;;;;;;;;;3.40;100.00;98021.77;107619;1267;60591;-75
2022/11/10 05:51:08;;;;;;;;;;;;;;;3.42;100.00;98024.12;107628;1262;60942;-74
2022/11/10 05:53:56;;;;;;;;;;;;;;;3.43;100.00;98028.07;107627;1257;72859;-74
2022/11/10 05:56:43;;;;;;;;;;;;;;;3.45;100.00;98029.05;107646;1270;68685;-74
2022/11/10 05:59:30;;;;;;;;;;;;;;;3.47;100.00;98028.44;107640;1267;68747;-75
2022/11/10 06:02:17;;;;;;;;;;;;;;;3.49;100.00;98030.09;107632;1267;60585;-74
2022/11/10 06:05:05;;;;;;;;;;;;;;;3.52;100.00;98032.92;107662;1269;60534;-74
2022/11/10 06:07:54;;;;;;;;;;;;;;;3.54;100.00;98035.27;107633;1267;72228;-74
2022/11/10 06:10:43;;;;;;;;;;;;;;;3.56;100.00;98041.55;107620;1267;68083;-74
2022/11/10 06:13:30;;;;;;;;;;;;;;;3.59;100.00;98043.34;107619;1271;69319;-74
2022/11/10 06:16:18;;;;;;;;;;;;;;;3.62;100.00;98050.51;107611;1270;60578;-74
2022/11/10 06:19:05;;;;;;;;;;;;;;;3.62;100.00;98052.21;107630;1269;60555;-74
2022/11/10 06:21:52;;;;;;;;;;;;;;;3.65;100.00;98055.23;107636;1267;71712;-75
2022/11/10 06:24:50;;;;;;;;;;;;;;;3.66;100.00;98056.23;107644;1267;69913;-75
2022/11/10 06:27:37;;;;;;;;;;;;;;;3.68;100.00;98062.88;107625;1269;68768;-74
2022/11/10 06:30:25;;;;;;;;;;;;;;;3.71;100.00;98066.41;107593;1265;60562;-75
2022/11/10 06:33:12;;;;;;;;;;;;;;;3.70;100.00;98068.69;107626;1267;60525;-74
2022/11/10 06:35:59;;;;;;;;;;;;;;;3.68;100.00;98064.96;107606;1271;71516;-75
2022/11/10 06:38:47;;;;;;;;;;;;;;;3.69;100.00;98070.92;107628;1270;68696;-74
2022/11/10 06:41:34;;;;;;;;;;;;;;;3.73;100.00;98073.38;107629;1270;68758;-75
2022/11/10 06:44:22;;;;;;;;;;;;;;;3.77;100.00;98076.17;107631;1270;60577;-76
2022/11/10 06:47:09;;;;;;;;;;;;;;;3.79;100.00;98075.77;107671;1271;60495;-75
2022/11/10 06:49:56;;;;;;;;;;;;;;;3.82;100.00;98079.77;107617;1271;72877;-76
2022/11/10 06:52:44;;;;;;;;;;;;;;;3.82;100.00;98078.23;107592;1269;69291;-74
2022/11/10 06:55:31;;;;;;;;;;;;;;;3.84;100.00;98077.49;107577;1261;68790;-74
2022/11/10 06:58:19;;;;;;;;;;;;;;;3.83;100.00;98077.88;107576;1270;60594;-74
2022/11/10 07:01:06;;;;;;;;;;;;;;;3.80;100.00;98081.75;107661;1269;60499;-75
2022/11/10 07:03:53;;;;;;;;;;;;;;;3.88;100.00;98085.30;107660;1265;71577;-68
2022/11/10 07:07:00;;;;;;;;;;;;;;;3.97;100.00;98091.86;107652;1269;69183;-68
2022/11/10 07:09:47;;;;;;;;;;;;;;;4.01;100.00;98096.17;107601;1267;69258;-68
2022/11/10 07:12:35;;;;;;;;;;;;;;;4.06;100.00;98095.50;107628;1270;60574;-68
2022/11/10 07:15:22;;;;;;;;;;;;;;;4.10;100.00;98093.98;107606;1270;60565;-70
2022/11/10 07:18:09;;;;;;;;;;;;;;;4.15;100.00;98097.93;107640;1267;72537;-70
2022/11/10 07:20:57;;;;;;;;;;;;;;;4.22;100.00;98095.61;107638;1269;69339;-70
2022/11/10 07:23:45;;;;;;;;;;;;;;;4.28;100.00;98093.50;107593;1267;70022;-70
2022/11/10 07:26:32;;;;;;;;;;;;;;;4.29;100.00;98090.88;107611;1272;60940;-70
2022/11/10 07:29:20;;;;;;;;;;;;;;;4.33;100.00;98093.14;107234;1265;60580;-70
2022/11/10 07:32:07;;;;;;;;;;;;;;;4.41;100.00;98094.41;107686;1266;71797;-70
2022/11/10 07:34:55;;;;;;;;;;;;;;;4.48;100.00;98092.05;107624;1270;69350;-70
2022/11/10 07:37:42;;;;;;;;;;;;;;;4.54;100.00;98096.16;107581;1265;69282;-70
2022/11/10 07:40:30;;;;;;;;;;;;;;;4.55;100.00;98094.41;107642;1269;60508;-70
2022/11/10 07:43:18;;;;;;;;;;;;;;;4.57;100.00;98093.10;107602;1269;60937;-70
2022/11/10 07:46:06;;;;;;;;;;;;;;;4.63;100.00;98097.19;107616;1270;71663;-70
2022/11/10 07:48:53;;;;;;;;;;;;;;;4.69;100.00;98099.90;107603;1270;68144;-70
2022/11/10 07:51:41;;;;;;;;;;;;;;;4.76;100.00;98102.40;107613;1271;69381;-70
2022/11/10 07:54:29;;;;;;;;;;;;;;;4.80;100.00;98100.48;107601;1269;60583;-70
2022/11/10 07:57:17;;;;;;;;;;;;;;;4.87;100.00;98098.34;107598;1272;60585;-70
2022/11/10 08:00:04;;;;;;;;;;;;;;;4.93;100.00;98099.34;107638;1269;72008;-72
2022/11/10 08:02:51;;;;;;;;;;;;;;;5.00;100.00;98097.16;107779;1269;69791;-72
2022/11/10 08:05:38;;;;;;;;;;;;;;;5.07;100.00;98100.14;107584;1270;69850;-73
2022/11/10 08:08:27;;;;;;;;;;;;;;;5.11;100.00;98100.51;107675;1267;60550;-70
2022/11/10 08:11:15;;;;;;;;;;;;;;;5.16;100.00;98103.11;107818;1267;60539;-71
2022/11/10 08:14:02;;;;;;;;;;;;;;;5.24;100.00;98102.25;107640;1267;71748;-71
2022/11/10 08:16:49;;;;;;;;;;;;;;;5.38;100.00;98106.00;107592;1270;68639;-71
2022/11/10 08:19:37;;;;;;;;;;;;;;;5.43;100.00;98106.13;107696;1265;69273;-70
2022/11/10 08:22:24;;;;;;;;;;;;;;;5.46;100.00;98106.88;107730;1270;61000;-70
2022/11/10 08:25:11;;;;;;;;;;;;;;;5.54;100.00;98105.86;107625;1268;60534;-70
2022/11/10 08:28:04;;;;;;;;;;;;;;;5.69;100.00;98111.27;107607;1269;72207;-72
2022/11/10 08:30:52;;;;;;;;;;;;;;;5.79;100.00;98113.29;107622;1269;69179;-72
2022/11/10 08:33:40;;;;;;;;;;;;;;;5.90;100.00;98114.23;107646;1269;69710;-72
2022/11/10 08:36:27;;;;;;;;;;;;;;;6.00;100.00;98118.79;107639;1267;60504;-71
2022/11/10 08:39:14;;;;;;;;;;;;;;;6.16;100.00;98121.25;107588;1267;60469;-73
2022/11/10 08:42:21;;;;;;;;;;;;;;;6.21;100.00;98119.98;107639;1270;72818;-72
2022/11/10 08:45:09;;;;;;;;;;;;;;;6.26;100.00;98122.52;107645;1271;68561;-71
2022/11/10 08:48:00;;;;;;;;;;;;;;;6.31;100.00;98125.61;107618;1267;69117;-70
2022/11/10 08:50:48;;;;;;;;;;;;;;;6.33;100.00;98129.30;107606;1271;60571;-71
2022/11/10 08:53:35;;;;;;;;;;;;;;;6.44;100.00;98131.95;107611;1269;60801;-70
2022/11/10 08:56:23;;;;;;;;;;;;;;;6.78;99.96;98124.51;107614;1267;72978;-70
2022/11/10 08:59:10;;;;;;;;;;;;;;;7.17;99.96;98122.48;107629;1269;69211;-73
2022/11/10 09:01:57;;;;;;;;;;;;;;;7.29;97.47;98125.25;107729;1270;69177;-73
2022/11/10 09:04:44;;;;;;;;;;;;;;;7.39;95.58;98128.36;107748;1261;60573;-73
2022/11/10 09:07:33;;;;;;;;;;;;;;;7.39;94.15;98128.04;107768;1271;60573;-75
2022/11/10 09:10:20;;;;;;;;;;;;;;;7.41;93.33;98122.05;107765;1271;72676;-75
2022/11/10 09:13:08;;;;;;;;;;;;;;;7.57;93.38;98121.77;107759;1270;69014;-75
2022/11/10 09:15:59;;;;;;;;;;;;;;;7.65;91.40;98121.38;107717;1265;69091;-75
2022/11/10 09:18:46;;;;;;;;;;;;;;;7.92;89.67;98121.08;107708;1268;60570;-75
2022/11/10 09:21:33;;;;;;;;;;;;;;;8.61;90.30;98115.77;107747;1267;61003;-74
2022/11/10 09:24:20;;;;;;;;;;;;;;;9.07;86.68;98113.92;107766;1268;71323;-75
2022/11/10 09:27:07;;;;;;;;;;;;;;;9.46;83.46;98119.40;107785;1267;69827;-76
2022/11/10 09:29:54;;;;;;;;;;;;;;;9.77;80.04;98115.52;107774;1269;69775;-75
2022/11/10 09:32:45;;;;;;;;;;;;;;;10.82;79.87;98116.51;107727;1270;60583;-74
2022/11/10 09:35:32;;;;;;;;;;;;;;;11.56;74.72;98114.40;107762;1270;60545;-74
2022/11/10 09:38:19;;;;;;;;;;;;;;;12.28;71.38;98111.69;107752;1269;72800;-74
2022/11/10 09:41:07;;;;;;;;;;;;;;;12.54;67.57;98110.23;107752;1269;70274;-74
2022/11/10 09:44:02;;;;;;;;;;;;;;;13.14;67.78;98112.30;107717;1267;69919;-74
2022/11/10 09:46:57;;;;;;;;;;;;;;;13.21;64.39;98107.56;107729;1271;60529;-73
2022/11/10 09:49:47;;;;;;;;;;;;;;;13.92;63.11;98110.73;107618;1271;60526;-72
2022/11/10 09:52:36;;;;;;;;;;;;;;;14.55;62.52;98107.55;107740;1266;72206;-74
2022/11/10 09:55:29;;;;;;;;;;;;;;;14.15;62.09;98110.23;107718;1268;69906;-73
2022/11/10 09:58:17;;;;;;;;;;;;;;;13.86;62.88;98108.41;107712;1270;69260;-74
2022/11/10 10:01:23;;;;;;;;;;;;;;;13.51;63.65;98109.80;107730;1270;60656;-74
2022/11/10 10:04:22;;;;;;;;;;;;;;;13.02;64.22;98109.64;107719;1267;61082;-74
2022/11/10 10:07:15;;;;;;;;;;;;;;;12.49;66.51;98110.94;107732;1269;72129;-74
2022/11/10 10:10:08;;;;;;;;;;;;;;;12.38;66.63;98109.93;107754;1269;68323;-74
2022/11/10 10:13:21;;;;;;;;;;;;;;;11.55;69.54;98115.86;107737;1270;69154;-74
2022/11/10 10:16:14;;;;;;;;;;;;;;;11.32;71.43;98112.30;107721;1271;61024;-74
2022/11/10 10:19:15;;;;;;;;;;;;;;;11.14;72.34;98110.81;107742;1270;60583;-74
2022/11/10 10:22:11;;;;;;;;;;;;;;;10.98;73.03;98116.02;107790;1271;72783;-74
2022/11/10 10:25:01;;;;;;;;;;;;;;;10.72;73.60;98114.38;107781;1270;68268;-73
2022/11/10 10:27:54;;;;;;;;;;;;;;;10.58;74.79;98113.98;107699;1271;69105;-73
2022/11/10 10:30:42;;;;;;;;;;;;;;;10.42;74.58;98114.96;107712;1270;60598;-72
2022/11/10 10:33:29;;;;;;;;;;;;;;;10.10;75.79;98117.55;107533;1265;60956;-74
2022/11/10 10:36:18;;;;;;;;;;;;;;;9.84;77.34;98117.36;107555;1271;72045;-74
2022/11/10 10:39:09;;;;;;;;;;;;;;;9.79;77.48;98117.33;107732;1269;69035;-74
2022/11/10 10:41:57;;;;;;;;;;;;;;;9.71;78.37;98115.67;107761;1270;68312;-75
2022/11/10 10:45:20;;;;;;;;;;;;;;;9.60;78.85;98116.34;107759;1271;60539;-74
2022/11/10 10:48:24;;;;;;;;;;;;;;;9.38;80.25;98115.17;107424;1271;60581;-73
2022/11/10 10:51:27;;;;;;;;;;;;;;;9.31;83.01;98117.99;107613;1267;71681;-73
2022/11/10 10:54:24;;;;;;;;;;;;;;;9.39;82.72;98122.73;107741;1268;69030;-73
2022/11/10 10:57:14;;;;;;;;;;;;;;;9.48;81.93;98122.61;107739;1265;67340;-73
2022/11/10 11:00:21;;;;;;;;;;;;;;;9.54;82.18;98124.18;107722;1271;60527;-73
2022/11/10 11:03:13;;;;;;;;;;;;;;;9.59;82.39;98124.39;107743;1265;60522;-75
2022/11/10 11:06:02;;;;;;;;;;;;;;;9.61;82.55;98121.70;107760;1269;72238;-73
2022/11/10 11:09:19;;;;;;;;;;;;;;;9.67;82.08;98126.34;107755;1271;69077;-72
2022/11/10 11:12:11;;;;;;;;;;;;;;;9.74;81.43;98116.39;107699;1272;69112;-74
2022/11/10 11:15:17;;;;;;;;;;;;;;;9.67;80.35;98120.30;107762;1270;60581;-74
2022/11/10 11:18:18;;;;;;;;;;;;;;;9.61;80.15;98116.05;107775;1270;60531;-74
2022/11/10 11:21:23;;;;;;;;;;;;;;;9.63;81.49;98117.53;107682;1271;72065;-74
2022/11/10 11:24:29;;;;;;;;;;;;;;;9.66;81.58;98117.69;107744;1261;69493;-74
2022/11/10 11:27:32;;;;;;;;;;;;;;;9.66;81.20;98121.54;107726;1265;69807;-74
2022/11/10 11:30:21;;;;;;;;;;;;;;;9.72;81.16;98119.47;107736;1269;60612;-74
2022/11/10 11:33:14;;;;;;;;;;;;;;;9.74;80.00;98118.65;107772;1270;60643;-73
2022/11/10 11:36:13;;;;;;;;;;;;;;;9.74;81.21;98116.92;107732;1267;72908;-73
2022/11/10 11:39:20;;;;;;;;;;;;;;;9.71;81.44;98114.10;107751;1270;69672;-73
2022/11/10 11:42:16;;;;;;;;;;;;;;;9.53;81.05;98114.46;107467;1270;70008;-72
2022/11/10 11:45:26;;;;;;;;;;;;;;;9.30;81.60;98113.70;107617;1270;60545;-73
2022/11/10 11:48:13;;;;;;;;;;;;;;;9.11;82.16;98114.41;107626;1271;60515;-73
2022/11/10 11:51:04;;;;;;;;;;;;;;;8.97;82.84;98119.70;107663;1271;72948;-73
2022/11/10 11:53:51;;;;;;;;;;;;;;;8.88;83.55;98116.88;107619;1265;68535;-73
2022/11/10 11:56:40;;;;;;;;;;;;;;;8.88;83.87;98118.11;107605;1271;70017;-73
2022/11/10 11:59:27;;;;;;;;;;;;;;;8.79;83.77;98117.21;107608;1266;60587;-73
2022/11/10 12:02:33;;;;;;;;;;;;;;;8.71;84.20;98119.38;107610;1270;60515;-73
2022/11/10 12:05:23;;;;;;;;;;;;;;;8.61;84.76;98121.98;107629;1270;71524;-73
2022/11/10 12:08:10;;;;;;;;;;;;;;;8.54;85.19;98122.05;107775;1270;69228;-74
2022/11/10 12:11:18;;;;;;;;;;;;;;;8.49;85.46;98121.23;107747;1266;69090;-75
2022/11/10 12:14:24;;;;;;;;;;;;;;;8.49;86.01;98125.27;107761;1265;60466;-74
2022/11/10 12:17:21;;;;;;;;;;;;;;;8.48;85.90;98130.86;107753;1265;60511;-74
2022/11/10 12:20:26;;;;;;;;;;;;;;;8.43;86.22;98135.48;107693;1271;72245;-74
2022/11/10 12:23:16;;;;;;;;;;;;;;;8.45;86.36;98132.93;107756;1269;69687;-73
2022/11/10 12:26:09;;;;;;;;;;;;;;;8.51;87.30;98130.86;107707;1270;69102;-73
2022/11/10 12:29:14;;;;;;;;;;;;;;;8.61;86.40;98129.31;107685;1270;60570;-73
2022/11/10 12:32:24;;;;;;;;;;;;;;;8.66;86.18;98130.80;107882;1270;60512;-73
2022/11/10 12:35:13;;;;;;;;;;;;;;;8.72;86.45;98133.59;107566;1265;72374;-72
2022/11/10 12:38:19;;;;;;;;;;;;;;;8.75;86.40;98134.29;107631;1270;68554;-72
2022/11/10 12:41:09;;;;;;;;;;;;;;;8.82;87.00;98131.67;107626;1269;69287;-73
2022/11/10 12:44:02;;;;;;;;;;;;;;;8.88;86.21;98133.26;107622;1271;60556;-72
2022/11/10 12:46:52;;;;;;;;;;;;;;;8.93;86.12;98140.78;107655;1271;60513;-72
2022/11/10 12:49:47;;;;;;;;;;;;;;;8.98;85.93;98137.94;107636;1272;71850;-72
2022/11/10 12:52:39;;;;;;;;;;;;;;;9.02;85.79;98142.02;107657;1265;69266;-72
2022/11/10 12:55:38;;;;;;;;;;;;;;;9.05;85.83;98141.87;107609;1271;68608;-72
2022/11/10 12:58:27;;;;;;;;;;;;;;;9.03;85.16;98141.30;107663;1270;60920;-73
2022/11/10 13:01:16;;;;;;;;;;;;;;;8.99;85.06;98143.09;107677;1270;60483;-72
2022/11/10 13:04:04;;;;;;;;;;;;;;;8.95;85.46;98147.83;107643;1270;72500;-73
2022/11/10 13:06:51;;;;;;;;;;;;;;;8.97;86.06;98148.40;107633;1271;69075;-72
2022/11/10 13:09:41;;;;;;;;;;;;;;;8.99;86.36;98151.79;107643;1269;68800;-72
2022/11/10 13:12:28;;;;;;;;;;;;;;;9.00;86.01;98151.33;107630;1271;60563;-72
2022/11/10 13:15:34;;;;;;;;;;;;;;;9.01;86.34;98153.22;107632;1267;60532;-72
2022/11/10 13:18:21;;;;;;;;;;;;;;;8.96;86.97;98155.94;107664;1267;71529;-72
2022/11/10 13:21:09;;;;;;;;;;;;;;;8.86;87.09;98157.69;107604;1267;69210;-72
2022/11/10 13:24:01;;;;;;;;;;;;;;;8.78;87.25;98153.40;107611;1271;68690;-72
2022/11/10 13:26:51;;;;;;;;;;;;;;;8.68;87.36;98149.75;107693;1264;60495;-72
2022/11/10 13:29:44;;;;;;;;;;;;;;;8.64;87.42;98148.23;107613;1270;60482;-72
2022/11/10 13:32:32;;;;;;;;;;;;;;;8.58;88.20;98142.86;107607;1271;71716;-73
2022/11/10 13:35:28;;;;;;;;;;;;;;;8.53;87.70;98147.61;107643;1270;69279;-72
2022/11/10 13:38:33;;;;;;;;;;;;;;;8.52;88.24;98148.02;107608;1266;69149;-72
2022/11/10 13:41:26;;;;;;;;;;;;;;;8.50;88.74;98138.40;107751;1270;60555;-72
2022/11/10 13:44:19;;;;;;;;;;;;;;;8.50;88.80;98148.70;107725;1270;60578;-72
2022/11/10 13:47:06;;;;;;;;;;;;;;;8.52;88.48;98155.53;107749;1266;73165;-73
2022/11/10 13:50:12;;;;;;;;;;;;;;;8.53;88.39;98150.75;107775;1270;68586;-72
2022/11/10 13:53:05;;;;;;;;;;;;;;;8.52;89.23;98147.02;107628;1271;68626;-73
2022/11/10 13:56:01;;;;;;;;;;;;;;;8.50;89.20;98150.73;107619;1270;60631;-73
2022/11/10 13:58:48;;;;;;;;;;;;;;;8.48;89.61;98150.18;107696;1272;60568;-74
2022/11/10 14:01:36;;;;;;;;;;;;;;;8.47;89.35;98152.99;107951;1270;72223;-72
2022/11/10 14:04:42;;;;;;;;;;;;;;;8.46;89.79;98144.17;107647;1265;69703;-72
2022/11/10 14:07:34;;;;;;;;;;;;;;;8.46;89.93;98150.27;107742;1271;69244;-73
2022/11/10 14:10:25;;;;;;;;;;;;;;;8.45;89.31;98152.55;107576;1267;60580;-72
2022/11/10 14:13:17;;;;;;;;;;;;;;;8.45;89.21;98145.94;107622;1270;60479;-74
2022/11/10 14:16:19;;;;;;;;;;;;;;;8.44;89.45;98138.71;107747;1269;72156;-73
2022/11/10 14:19:06;;;;;;;;;;;;;;;8.39;90.17;98148.21;107755;1270;68423;-73
2022/11/10 14:22:00;;;;;;;;;;;;;;;8.37;90.34;98151.79;107743;1270;68728;-73
2022/11/10 14:25:16;;;;;;;;;;;;;;;8.35;90.56;98152.32;107757;1271;60546;-73
2022/11/10 14:28:24;;;;;;;;;;;;;;;8.34;90.96;98150.83;107773;1267;60581;-73
2022/11/10 14:31:22;;;;;;;;;;;;;;;8.32;91.15;98155.63;107743;1270;72410;-73
2022/11/10 14:34:14;;;;;;;;;;;;;;;8.32;91.00;98152.01;107575;1269;70038;-73
2022/11/10 14:37:03;;;;;;;;;;;;;;;8.31;91.13;98150.12;107544;1270;69139;-72
2022/11/10 14:39:52;;;;;;;;;;;;;;;8.31;91.76;98154.64;107356;1272;60532;-74
2022/11/10 14:42:39;;;;;;;;;;;;;;;8.29;91.68;98159.99;107362;1270;60964;-72
2022/11/10 14:45:27;;;;;;;;;;;;;;;8.27;91.93;98157.79;107394;1270;72840;-73
2022/11/10 14:48:18;;;;;;;;;;;;;;;8.27;92.11;98164.09;107440;1267;69734;-72
2022/11/10 14:51:14;;;;;;;;;;;;;;;8.23;91.72;98162.23;107496;1270;68604;-72
2022/11/10 14:54:01;;;;;;;;;;;;;;;8.15;92.31;98168.68;107495;1270;60551;-75